sensor_id;sensor_type;location;lat;lon;timestamp;pressure;altitude;pressure_sealevel;temperature;humidity
8075;BME280;4080;42.676;23.372;2022-12-07T00:02:26;95082.50;;;6.08;100.00
8075;BME280;4080;42.676;23.372;2022-12-07T00:04:52;95091.84;;;6.04;100.00
8075;BME280;4080;42.676;23.372;2022-12-07T00:07:19;95094.16;;;6.00;100.00
8075;BME280;4080;42.676;23.372;2022-12-07T00:09:47;95087.25;;;5.94;100.00
8075;BME280;4080;42.676;23.372;2022-12-07T00:12:14;95080.19;;;5.95;100.00
8075;BME280;4080;42.676;23.372;2022-12-07T00:14:41;95082.81;;;5.95;100.00
8075;BME280;4080;42.676;23.372;2022-12-07T00:17:07;95079.88;;;5.91;100.00
8075;BME280;4080;42.676;23.372;2022-12-07T00:19:34;95079.88;;;5.91;100.00
8075;BME280;4080;42.676;23.372;2022-12-07T00:22:01;95075.66;;;5.90;100.00
8075;BME280;4080;42.676;23.372;2022-12-07T00:24:27;95075.31;;;5.86;100.00
8075;BME280;4080;42.676;23.372;2022-12-07T00:26:55;95078.03;;;5.91;100.00
8075;BME280;4080;42.676;23.372;2022-12-07T00:29:22;95064.47;;;5.95;100.00
8075;BME280;4080;42.676;23.372;2022-12-07T00:31:49;95082.97;;;6.05;100.00
8075;BME280;4080;42.676;23.372;2022-12-07T00:34:17;95073.59;;;6.09;100.00
8075;BME280;4080;42.676;23.372;2022-12-07T00:36:44;95082.25;;;6.09;100.00
8075;BME280;4080;42.676;23.372;2022-12-07T00:39:11;95091.81;;;6.15;100.00
8075;BME280;4080;42.676;23.372;2022-12-07T00:41:38;95091.31;;;6.18;100.00
8075;BME280;4080;42.676;23.372;2022-12-07T00:44:06;95086.63;;;6.20;100.00
8075;BME280;4080;42.676;23.372;2022-12-07T00:46:33;95080.69;;;6.25;100.00
8075;BME280;4080;42.676;23.372;2022-12-07T00:48:59;95076.47;;;6.24;100.00
8075;BME280;4080;42.676;23.372;2022-12-07T00:51:26;95067.44;;;6.15;100.00
8075;BME280;4080;42.676;23.372;2022-12-07T00:53:53;95073.94;;;6.29;100.00
8075;BME280;4080;42.676;23.372;2022-12-07T00:56:21;95072.91;;;6.30;100.00
8075;BME280;4080;42.676;23.372;2022-12-07T00:58:52;95070.03;;;6.32;100.00
8075;BME280;4080;42.676;23.372;2022-12-07T01:01:21;95068.69;;;6.29;100.00
8075;BME280;4080;42.676;23.372;2022-12-07T01:03:48;95068.69;;;6.29;100.00
8075;BME280;4080;42.676;23.372;2022-12-07T01:06:16;95066.88;;;6.30;100.00
8075;BME280;4080;42.676;23.372;2022-12-07T01:08:43;95067.41;;;6.32;100.00
8075;BME280;4080;42.676;23.372;2022-12-07T01:11:12;95064.97;;;6.25;100.00
8075;BME280;4080;42.676;23.372;2022-12-07T01:13:40;95072.50;;;6.21;100.00
8075;BME280;4080;42.676;23.372;2022-12-07T01:16:07;95070.84;;;6.15;100.00
8075;BME280;4080;42.676;23.372;2022-12-07T01:18:36;95067.09;;;6.11;100.00
8075;BME280;4080;42.676;23.372;2022-12-07T01:21:04;95067.34;;;6.10;100.00
8075;BME280;4080;42.676;23.372;2022-12-07T01:23:32;95058.78;;;6.14;100.00
8075;BME280;4080;42.676;23.372;2022-12-07T01:26:01;95053.06;;;6.17;100.00
8075;BME280;4080;42.676;23.372;2022-12-07T01:28:28;95053.63;;;6.19;100.00
8075;BME280;4080;42.676;23.372;2022-12-07T01:30:57;95044.25;;;6.23;100.00
8075;BME280;4080;42.676;23.372;2022-12-07T01:33:24;95050.84;;;6.26;100.00
8075;BME280;4080;42.676;23.372;2022-12-07T01:35:52;95054.81;;;6.29;100.00
8075;BME280;4080;42.676;23.372;2022-12-07T01:38:19;95041.47;;;6.30;100.00
8075;BME280;4080;42.676;23.372;2022-12-07T01:40:45;95051.47;;;6.33;100.00
8075;BME280;4080;42.676;23.372;2022-12-07T01:43:20;95036.72;;;6.27;100.00
8075;BME280;4080;42.676;23.372;2022-12-07T01:45:47;95047.09;;;6.39;100.00
8075;BME280;4080;42.676;23.372;2022-12-07T01:48:15;95052.00;;;6.35;100.00
8075;BME280;4080;42.676;23.372;2022-12-07T01:50:45;95058.28;;;6.34;100.00
8075;BME280;4080;42.676;23.372;2022-12-07T01:53:16;95049.56;;;6.29;100.00
8075;BME280;4080;42.676;23.372;2022-12-07T01:55:46;95048.78;;;6.28;100.00
8075;BME280;4080;42.676;23.372;2022-12-07T01:58:14;95040.91;;;6.28;100.00
8075;BME280;4080;42.676;23.372;2022-12-07T02:00:41;95036.09;;;6.20;100.00
8075;BME280;4080;42.676;23.372;2022-12-07T02:03:11;95044.31;;;6.12;100.00
8075;BME280;4080;42.676;23.372;2022-12-07T02:05:41;95033.47;;;6.03;100.00
8075;BME280;4080;42.676;23.372;2022-12-07T02:08:09;95024.25;;;6.01;100.00
8075;BME280;4080;42.676;23.372;2022-12-07T02:10:38;94984.16;;;5.67;100.00
8075;BME280;4080;42.676;23.372;2022-12-07T02:13:09;95018.53;;;5.87;100.00
8075;BME280;4080;42.676;23.372;2022-12-07T02:16:06;95033.06;;;5.95;100.00
8075;BME280;4080;42.676;23.372;2022-12-07T02:18:45;95038.31;;;5.95;100.00
8075;BME280;4080;42.676;23.372;2022-12-07T02:21:17;95033.53;;;5.91;100.00
8075;BME280;4080;42.676;23.372;2022-12-07T02:24:14;95033.19;;;5.88;100.00
8075;BME280;4080;42.676;23.372;2022-12-07T02:27:13;95034.47;;;5.85;100.00
8075;BME280;4080;42.676;23.372;2022-12-07T02:29:49;95034.22;;;5.87;100.00
8075;BME280;4080;42.676;23.372;2022-12-07T02:32:24;95022.97;;;5.86;100.00
8075;BME280;4080;42.676;23.372;2022-12-07T02:34:57;94966.97;;;5.54;100.00
8075;BME280;4080;42.676;23.372;2022-12-07T02:37:45;95012.03;;;5.89;100.00
8075;BME280;4080;42.676;23.372;2022-12-07T02:40:17;95004.28;;;5.95;100.00
8075;BME280;4080;42.676;23.372;2022-12-07T02:42:48;95007.44;;;5.97;100.00
8075;BME280;4080;42.676;23.372;2022-12-07T02:45:20;95017.50;;;6.05;100.00
8075;BME280;4080;42.676;23.372;2022-12-07T02:47:51;95029.31;;;6.07;100.00
8075;BME280;4080;42.676;23.372;2022-12-07T02:50:20;95008.78;;;5.99;100.00
8075;BME280;4080;42.676;23.372;2022-12-07T02:52:47;95016.09;;;6.14;100.00
8075;BME280;4080;42.676;23.372;2022-12-07T02:55:16;95019.56;;;6.19;100.00
8075;BME280;4080;42.676;23.372;2022-12-07T02:58:01;95017.44;;;6.16;100.00
8075;BME280;4080;42.676;23.372;2022-12-07T03:00:38;95010.38;;;6.17;100.00
8075;BME280;4080;42.676;23.372;2022-12-07T03:03:13;95006.16;;;6.16;100.00
8075;BME280;4080;42.676;23.372;2022-12-07T03:05:55;95014.34;;;6.19;100.00
8075;BME280;4080;42.676;23.372;2022-12-07T03:08:31;95013.06;;;6.22;100.00
8075;BME280;4080;42.676;23.372;2022-12-07T03:11:04;95000.53;;;6.24;100.00
8075;BME280;4080;42.676;23.372;2022-12-07T03:13:35;94996.78;;;6.20;100.00
8075;BME280;4080;42.676;23.372;2022-12-07T03:16:09;94989.66;;;6.15;100.00
8075;BME280;4080;42.676;23.372;2022-12-07T03:18:42;95000.38;;;6.14;100.00
8075;BME280;4080;42.676;23.372;2022-12-07T03:21:14;94965.13;;;5.88;100.00
8075;BME280;4080;42.676;23.372;2022-12-07T03:23:44;94991.88;;;6.07;100.00
8075;BME280;4080;42.676;23.372;2022-12-07T03:26:13;94989.97;;;6.02;100.00
8075;BME280;4080;42.676;23.372;2022-12-07T03:28:45;94990.22;;;6.01;100.00
8075;BME280;4080;42.676;23.372;2022-12-07T03:31:18;94992.59;;;6.02;100.00
8075;BME280;4080;42.676;23.372;2022-12-07T03:33:53;94993.38;;;6.03;100.00
8075;BME280;4080;42.676;23.372;2022-12-07T03:36:28;94994.72;;;6.05;100.00
8075;BME280;4080;42.676;23.372;2022-12-07T03:38:58;95000.69;;;6.01;100.00
8075;BME280;4080;42.676;23.372;2022-12-07T03:41:30;95008.94;;;5.93;100.00
8075;BME280;4080;42.676;23.372;2022-12-07T03:43:58;95004.63;;;5.86;100.00
8075;BME280;4080;42.676;23.372;2022-12-07T03:46:34;94990.44;;;5.82;100.00
8075;BME280;4080;42.676;23.372;2022-12-07T03:49:08;95004.75;;;5.91;100.00
8075;BME280;4080;42.676;23.372;2022-12-07T03:51:40;95005.53;;;5.92;100.00
8075;BME280;4080;42.676;23.372;2022-12-07T03:54:13;94995.84;;;5.93;100.00
8075;BME280;4080;42.676;23.372;2022-12-07T03:56:42;94993.13;;;5.87;100.00
8075;BME280;4080;42.676;23.372;2022-12-07T03:59:11;94997.44;;;5.94;100.00
8075;BME280;4080;42.676;23.372;2022-12-07T04:01:42;94991.19;;;5.95;100.00
8075;BME280;4080;42.676;23.372;2022-12-07T04:04:09;94989.03;;;5.91;100.00
8075;BME280;4080;42.676;23.372;2022-12-07T04:06:36;94984.19;;;5.83;100.00
8075;BME280;4080;42.676;23.372;2022-12-07T04:09:03;94988.13;;;5.86;100.00
8075;BME280;4080;42.676;23.372;2022-12-07T04:11:30;94988.38;;;5.84;100.00
8075;BME280;4080;42.676;23.372;2022-12-07T04:13:56;94995.44;;;5.84;100.00
8075;BME280;4080;42.676;23.372;2022-12-07T04:16:42;94990.09;;;5.79;100.00
8075;BME280;4080;42.676;23.372;2022-12-07T04:19:08;94982.72;;;5.76;100.00
8075;BME280;4080;42.676;23.372;2022-12-07T04:21:35;94980.34;;;5.74;100.00
8075;BME280;4080;42.676;23.372;2022-12-07T04:24:02;94983.44;;;5.71;100.00
8075;BME280;4080;42.676;23.372;2022-12-07T04:26:29;94990.25;;;5.72;100.00
8075;BME280;4080;42.676;23.372;2022-12-07T04:28:56;94989.22;;;5.73;100.00
8075;BME280;4080;42.676;23.372;2022-12-07T04:31:23;94993.66;;;5.73;100.00
8075;BME280;4080;42.676;23.372;2022-12-07T04:33:51;94994.47;;;5.73;100.00
8075;BME280;4080;42.676;23.372;2022-12-07T04:36:17;94993.91;;;5.71;100.00
8075;BME280;4080;42.676;23.372;2022-12-07T04:38:45;94980.66;;;5.61;100.00
8075;BME280;4080;42.676;23.372;2022-12-07T04:41:11;94990.03;;;5.74;100.00
8075;BME280;4080;42.676;23.372;2022-12-07T04:43:38;94997.41;;;5.77;100.00
8075;BME280;4080;42.676;23.372;2022-12-07T04:46:05;94998.34;;;5.71;100.00
8075;BME280;4080;42.676;23.372;2022-12-07T04:48:32;95009.53;;;5.66;100.00
8075;BME280;4080;42.676;23.372;2022-12-07T04:51:01;95000.72;;;5.55;100.00
8075;BME280;4080;42.676;23.372;2022-12-07T04:53:28;95009.19;;;5.46;100.00
8075;BME280;4080;42.676;23.372;2022-12-07T04:55:55;94991.72;;;5.35;100.00
8075;BME280;4080;42.676;23.372;2022-12-07T04:58:21;95000.13;;;5.37;100.00
8075;BME280;4080;42.676;23.372;2022-12-07T05:00:48;95002.44;;;5.33;100.00
8075;BME280;4080;42.676;23.372;2022-12-07T05:03:15;95002.66;;;5.32;100.00
8075;BME280;4080;42.676;23.372;2022-12-07T05:05:41;95004.25;;;5.33;100.00
8075;BME280;4080;42.676;23.372;2022-12-07T05:08:09;94999.34;;;5.36;100.00
8075;BME280;4080;42.676;23.372;2022-12-07T05:10:36;95003.31;;;5.39;100.00
8075;BME280;4080;42.676;23.372;2022-12-07T05:13:03;95006.72;;;5.39;100.00
8075;BME280;4080;42.676;23.372;2022-12-07T05:15:30;95001.72;;;5.38;100.00
8075;BME280;4080;42.676;23.372;2022-12-07T05:17:56;95003.78;;;5.36;100.00
8075;BME280;4080;42.676;23.372;2022-12-07T05:20:23;95001.41;;;5.34;100.00
8075;BME280;4080;42.676;23.372;2022-12-07T05:22:50;94999.00;;;5.33;100.00
8075;BME280;4080;42.676;23.372;2022-12-07T05:25:18;95000.75;;;5.27;100.00
8075;BME280;4080;42.676;23.372;2022-12-07T05:27:44;94997.56;;;5.25;100.00
8075;BME280;4080;42.676;23.372;2022-12-07T05:30:12;94988.50;;;5.16;100.00
8075;BME280;4080;42.676;23.372;2022-12-07T05:32:39;94995.66;;;5.20;100.00
8075;BME280;4080;42.676;23.372;2022-12-07T05:35:06;94999.63;;;5.23;100.00
8075;BME280;4080;42.676;23.372;2022-12-07T05:37:33;94984.78;;;5.12;100.00
8075;BME280;4080;42.676;23.372;2022-12-07T05:39:59;95000.22;;;5.13;100.00
8075;BME280;4080;42.676;23.372;2022-12-07T05:42:27;94994.34;;;5.06;100.00
8075;BME280;4080;42.676;23.372;2022-12-07T05:44:54;94992.75;;;5.05;100.00
8075;BME280;4080;42.676;23.372;2022-12-07T05:47:21;94984.69;;;5.07;100.00
8075;BME280;4080;42.676;23.372;2022-12-07T05:49:48;94988.19;;;5.12;100.00
8075;BME280;4080;42.676;23.372;2022-12-07T05:52:14;94988.38;;;5.22;100.00
8075;BME280;4080;42.676;23.372;2022-12-07T05:54:41;94988.31;;;5.34;100.00
8075;BME280;4080;42.676;23.372;2022-12-07T05:57:08;94990.22;;;5.39;100.00
8075;BME280;4080;42.676;23.372;2022-12-07T05:59:36;94990.78;;;5.41;100.00
8075;BME280;4080;42.676;23.372;2022-12-07T06:02:04;94993.25;;;5.47;100.00
8075;BME280;4080;42.676;23.372;2022-12-07T06:04:33;94992.03;;;5.38;100.00
8075;BME280;4080;42.676;23.372;2022-12-07T06:07:00;94983.25;;;5.27;100.00
8075;BME280;4080;42.676;23.372;2022-12-07T06:09:28;94995.38;;;5.34;100.00
8075;BME280;4080;42.676;23.372;2022-12-07T06:11:55;94994.44;;;5.40;100.00
8075;BME280;4080;42.676;23.372;2022-12-07T06:14:41;94990.31;;;5.44;100.00
8075;BME280;4080;42.676;23.372;2022-12-07T06:17:09;94994.28;;;5.46;100.00
8075;BME280;4080;42.676;23.372;2022-12-07T06:19:36;94991.91;;;5.45;100.00
8075;BME280;4080;42.676;23.372;2022-12-07T06:22:02;94995.25;;;5.57;100.00
8075;BME280;4080;42.676;23.372;2022-12-07T06:24:30;94994.06;;;5.65;100.00
8075;BME280;4080;42.676;23.372;2022-12-07T06:26:57;94999.69;;;5.73;100.00
8075;BME280;4080;42.676;23.372;2022-12-07T06:29:24;94983.84;;;5.63;100.00
8075;BME280;4080;42.676;23.372;2022-12-07T06:31:53;95000.81;;;5.77;100.00
8075;BME280;4080;42.676;23.372;2022-12-07T06:34:21;94998.59;;;5.69;100.00
8075;BME280;4080;42.676;23.372;2022-12-07T06:36:49;95007.16;;;5.65;100.00
8075;BME280;4080;42.676;23.372;2022-12-07T06:39:19;95003.44;;;5.60;100.00
8075;BME280;4080;42.676;23.372;2022-12-07T06:41:46;95004.22;;;5.61;100.00
8075;BME280;4080;42.676;23.372;2022-12-07T06:44:13;95003.75;;;5.64;100.00
8075;BME280;4080;42.676;23.372;2022-12-07T06:46:39;95009.06;;;5.69;100.00
8075;BME280;4080;42.676;23.372;2022-12-07T06:49:08;95010.72;;;5.75;100.00
8075;BME280;4080;42.676;23.372;2022-12-07T06:51:34;95013.22;;;5.82;100.00
8075;BME280;4080;42.676;23.372;2022-12-07T06:54:02;95017.34;;;5.95;100.00
8075;BME280;4080;42.676;23.372;2022-12-07T06:56:29;94970.84;;;5.85;100.00
8075;BME280;4080;42.676;23.372;2022-12-07T06:58:55;95013.00;;;6.17;100.00
8075;BME280;4080;42.676;23.372;2022-12-07T07:01:22;95011.41;;;6.16;100.00
8075;BME280;4080;42.676;23.372;2022-12-07T07:03:49;95014.50;;;6.13;100.00
8075;BME280;4080;42.676;23.372;2022-12-07T07:06:17;94993.38;;;6.03;100.00
8075;BME280;4080;42.676;23.372;2022-12-07T07:08:44;95012.81;;;6.23;100.00
8075;BME280;4080;42.676;23.372;2022-12-07T07:11:11;95013.75;;;6.34;100.00
8075;BME280;4080;42.676;23.372;2022-12-07T07:13:38;95011.84;;;6.46;100.00
8075;BME280;4080;42.676;23.372;2022-12-07T07:16:06;95009.66;;;6.60;100.00
8075;BME280;4080;42.676;23.372;2022-12-07T07:18:33;95013.75;;;6.73;100.00
8075;BME280;4080;42.676;23.372;2022-12-07T07:21:00;95020.72;;;6.84;100.00
8075;BME280;4080;42.676;23.372;2022-12-07T07:23:28;95014.53;;;6.95;100.00
8075;BME280;4080;42.676;23.372;2022-12-07T07:25:55;95007.28;;;7.02;100.00
8075;BME280;4080;42.676;23.372;2022-12-07T07:28:21;95015.78;;;7.09;100.00
8075;BME280;4080;42.676;23.372;2022-12-07T07:30:48;95023.41;;;7.11;100.00
8075;BME280;4080;42.676;23.372;2022-12-07T07:33:15;95021.03;;;7.09;100.00
8075;BME280;4080;42.676;23.372;2022-12-07T07:35:42;95023.25;;;7.23;100.00
8075;BME280;4080;42.676;23.372;2022-12-07T07:38:09;95031.81;;;7.35;100.00
8075;BME280;4080;42.676;23.372;2022-12-07T07:40:37;95031.16;;;7.50;100.00
8075;BME280;4080;42.676;23.372;2022-12-07T07:43:03;95031.78;;;7.62;100.00
8075;BME280;4080;42.676;23.372;2022-12-07T07:45:30;95026.94;;;7.75;100.00
8075;BME280;4080;42.676;23.372;2022-12-07T07:47:57;95029.28;;;8.04;100.00
8075;BME280;4080;42.676;23.372;2022-12-07T07:50:24;95027.16;;;8.33;100.00
8075;BME280;4080;42.676;23.372;2022-12-07T07:52:50;95031.75;;;8.53;100.00
8075;BME280;4080;42.676;23.372;2022-12-07T07:55:17;95024.50;;;8.65;100.00
8075;BME280;4080;42.676;23.372;2022-12-07T07:57:45;94972.34;;;8.52;100.00
8075;BME280;4080;42.676;23.372;2022-12-07T08:00:14;95035.81;;;9.28;100.00
8075;BME280;4080;42.676;23.372;2022-12-07T08:02:41;95036.97;;;9.68;100.00
8075;BME280;4080;42.676;23.372;2022-12-07T08:05:09;95033.31;;;9.84;100.00
8075;BME280;4080;42.676;23.372;2022-12-07T08:07:36;95035.44;;;10.07;100.00
8075;BME280;4080;42.676;23.372;2022-12-07T08:10:03;95037.56;;;10.36;100.00
8075;BME280;4080;42.676;23.372;2022-12-07T08:12:30;95040.47;;;10.34;100.00
8075;BME280;4080;42.676;23.372;2022-12-07T08:14:58;95054.19;;;10.21;100.00
8075;BME280;4080;42.676;23.372;2022-12-07T08:17:25;95042.31;;;10.18;100.00
8075;BME280;4080;42.676;23.372;2022-12-07T08:19:52;95043.59;;;10.06;100.00
8075;BME280;4080;42.676;23.372;2022-12-07T08:22:19;95041.22;;;9.99;100.00
8075;BME280;4080;42.676;23.372;2022-12-07T08:24:45;95042.81;;;9.90;100.00
8075;BME280;4080;42.676;23.372;2022-12-07T08:27:12;95030.91;;;9.77;100.00
8075;BME280;4080;42.676;23.372;2022-12-07T08:29:39;95025.16;;;10.01;100.00
8075;BME280;4080;42.676;23.372;2022-12-07T08:32:07;95037.81;;;10.60;100.00
8075;BME280;4080;42.676;23.372;2022-12-07T08:34:33;95046.06;;;11.33;100.00
8075;BME280;4080;42.676;23.372;2022-12-07T08:37:01;95047.72;;;11.68;100.00
8075;BME280;4080;42.676;23.372;2022-12-07T08:39:27;95049.59;;;11.62;100.00
8075;BME280;4080;42.676;23.372;2022-12-07T08:41:54;95045.69;;;11.49;100.00
8075;BME280;4080;42.676;23.372;2022-12-07T08:44:21;95043.97;;;11.25;100.00
8075;BME280;4080;42.676;23.372;2022-12-07T08:46:51;95034.28;;;11.00;100.00
8075;BME280;4080;42.676;23.372;2022-12-07T08:49:23;95043.84;;;10.75;100.00
8075;BME280;4080;42.676;23.372;2022-12-07T08:51:51;95026.25;;;10.45;100.00
8075;BME280;4080;42.676;23.372;2022-12-07T08:54:18;95031.22;;;10.16;100.00
8075;BME280;4080;42.676;23.372;2022-12-07T08:56:47;95026.22;;;10.00;100.00
8075;BME280;4080;42.676;23.372;2022-12-07T08:59:15;95025.69;;;9.87;100.00
8075;BME280;4080;42.676;23.372;2022-12-07T09:01:44;95022.75;;;9.79;100.00
8075;BME280;4080;42.676;23.372;2022-12-07T09:04:10;95013.78;;;9.64;100.00
8075;BME280;4080;42.676;23.372;2022-12-07T09:06:38;95012.47;;;9.62;100.00
8075;BME280;4080;42.676;23.372;2022-12-07T09:09:06;95009.31;;;9.60;100.00
8075;BME280;4080;42.676;23.372;2022-12-07T09:11:34;95015.63;;;9.54;100.00
8075;BME280;4080;42.676;23.372;2022-12-07T09:14:00;95009.56;;;9.53;100.00
8075;BME280;4080;42.676;23.372;2022-12-07T09:16:27;95005.88;;;9.49;100.00
8075;BME280;4080;42.676;23.372;2022-12-07T09:18:54;94998.19;;;9.43;100.00
8075;BME280;4080;42.676;23.372;2022-12-07T09:21:20;94989.50;;;9.27;100.00
8075;BME280;4080;42.676;23.372;2022-12-07T09:23:49;94993.19;;;9.26;100.00
8075;BME280;4080;42.676;23.372;2022-12-07T09:26:15;94991.34;;;9.26;100.00
8075;BME280;4080;42.676;23.372;2022-12-07T09:28:42;94991.34;;;9.31;100.00
8075;BME280;4080;42.676;23.372;2022-12-07T09:31:09;94949.16;;;9.11;100.00
8075;BME280;4080;42.676;23.372;2022-12-07T09:33:35;94992.66;;;9.39;100.00
8075;BME280;4080;42.676;23.372;2022-12-07T09:36:03;94983.72;;;9.40;100.00
8075;BME280;4080;42.676;23.372;2022-12-07T09:38:30;94978.19;;;9.42;100.00
8075;BME280;4080;42.676;23.372;2022-12-07T09:41:04;94973.47;;;9.44;100.00
8075;BME280;4080;42.676;23.372;2022-12-07T09:43:31;94965.28;;;9.45;100.00
8075;BME280;4080;42.676;23.372;2022-12-07T09:45:58;94972.94;;;9.47;100.00
8075;BME280;4080;42.676;23.372;2022-12-07T09:48:29;94921.59;;;9.19;100.00
8075;BME280;4080;42.676;23.372;2022-12-07T09:50:58;94945.81;;;9.26;100.00
8075;BME280;4080;42.676;23.372;2022-12-07T09:53:27;94957.41;;;9.45;100.00
8075;BME280;4080;42.676;23.372;2022-12-07T09:55:54;94944.50;;;9.28;100.00
8075;BME280;4080;42.676;23.372;2022-12-07T09:58:28;94961.09;;;9.39;100.00
8075;BME280;4080;42.676;23.372;2022-12-07T10:01:11;94931.31;;;9.23;100.00
8075;BME280;4080;42.676;23.372;2022-12-07T10:03:48;94942.13;;;9.37;100.00
8075;BME280;4080;42.676;23.372;2022-12-07T10:06:15;94948.97;;;9.48;100.00
8075;BME280;4080;42.676;23.372;2022-12-07T10:08:42;94946.91;;;9.55;100.00
8075;BME280;4080;42.676;23.372;2022-12-07T10:11:09;94944.25;;;9.65;100.00
8075;BME280;4080;42.676;23.372;2022-12-07T10:13:39;94942.94;;;9.68;100.00
8075;BME280;4080;42.676;23.372;2022-12-07T10:16:07;94937.66;;;9.73;100.00
8075;BME280;4080;42.676;23.372;2022-12-07T10:18:53;94932.69;;;9.82;100.00
8075;BME280;4080;42.676;23.372;2022-12-07T10:21:21;94932.44;;;9.83;100.00
8075;BME280;4080;42.676;23.372;2022-12-07T10:24:03;94933.75;;;9.86;100.00
8075;BME280;4080;42.676;23.372;2022-12-07T10:26:32;94932.16;;;9.90;100.00
8075;BME280;4080;42.676;23.372;2022-12-07T10:29:03;94927.94;;;9.94;100.00
8075;BME280;4080;42.676;23.372;2022-12-07T10:31:39;94924.75;;;10.12;100.00
8075;BME280;4080;42.676;23.372;2022-12-07T10:34:20;94909.19;;;10.31;100.00
8075;BME280;4080;42.676;23.372;2022-12-07T10:36:47;94902.53;;;10.54;100.00
8075;BME280;4080;42.676;23.372;2022-12-07T10:39:15;94904.31;;;10.69;100.00
8075;BME280;4080;42.676;23.372;2022-12-07T10:41:56;94877.72;;;10.55;100.00
8075;BME280;4080;42.676;23.372;2022-12-07T10:44:27;94891.69;;;10.61;100.00
8075;BME280;4080;42.676;23.372;2022-12-07T10:47:24;94904.06;;;10.65;100.00
8075;BME280;4080;42.676;23.372;2022-12-07T10:50:14;94897.47;;;10.63;100.00
8075;BME280;4080;42.676;23.372;2022-12-07T10:52:59;94887.13;;;11.26;100.00
8075;BME280;4080;42.676;23.372;2022-12-07T10:55:41;94894.84;;;11.90;100.00
8075;BME280;4080;42.676;23.372;2022-12-07T10:58:36;94890.59;;;11.94;100.00
8075;BME280;4080;42.676;23.372;2022-12-07T11:01:14;94888.56;;;11.81;100.00
8075;BME280;4080;42.676;23.372;2022-12-07T11:03:54;94876.53;;;11.65;100.00
8075;BME280;4080;42.676;23.372;2022-12-07T11:06:27;94876.06;;;11.58;100.00
8075;BME280;4080;42.676;23.372;2022-12-07T11:09:30;94877.66;;;11.54;100.00
8075;BME280;4080;42.676;23.372;2022-12-07T11:12:04;94863.50;;;11.44;100.00
8075;BME280;4080;42.676;23.372;2022-12-07T11:14:43;94875.16;;;11.38;100.00
8075;BME280;4080;42.676;23.372;2022-12-07T11:17:16;94877.84;;;11.33;100.00
8075;BME280;4080;42.676;23.372;2022-12-07T11:19:55;94864.97;;;11.22;100.00
8075;BME280;4080;42.676;23.372;2022-12-07T11:22:35;94873.72;;;11.17;100.00
8075;BME280;4080;42.676;23.372;2022-12-07T11:25:20;94865.59;;;11.08;100.00
8075;BME280;4080;42.676;23.372;2022-12-07T11:28:00;94853.22;;;11.04;100.00
8075;BME280;4080;42.676;23.372;2022-12-07T11:30:33;94850.56;;;11.04;100.00
8075;BME280;4080;42.676;23.372;2022-12-07T11:33:16;94845.84;;;10.96;100.00
8075;BME280;4080;42.676;23.372;2022-12-07T11:35:52;94839.28;;;10.93;100.00
8075;BME280;4080;42.676;23.372;2022-12-07T11:38:24;94837.44;;;10.94;100.00
8075;BME280;4080;42.676;23.372;2022-12-07T11:40:58;94827.19;;;10.87;100.00
8075;BME280;4080;42.676;23.372;2022-12-07T11:43:50;94822.94;;;10.91;100.00
8075;BME280;4080;42.676;23.372;2022-12-07T11:46:20;94827.63;;;11.04;100.00
8075;BME280;4080;42.676;23.372;2022-12-07T11:48:57;94821.56;;;10.99;100.00
8075;BME280;4080;42.676;23.372;2022-12-07T11:51:26;94832.41;;;10.92;100.00
8075;BME280;4080;42.676;23.372;2022-12-07T11:53:59;94828.31;;;10.76;100.00
8075;BME280;4080;42.676;23.372;2022-12-07T11:56:29;94823.81;;;10.71;100.00
8075;BME280;4080;42.676;23.372;2022-12-07T11:59:00;94814.09;;;10.67;100.00
8075;BME280;4080;42.676;23.372;2022-12-07T12:01:38;94816.94;;;10.80;100.00
8075;BME280;4080;42.676;23.372;2022-12-07T12:04:23;94813.59;;;11.09;100.00
8075;BME280;4080;42.676;23.372;2022-12-07T12:06:54;94810.03;;;11.24;100.00
8075;BME280;4080;42.676;23.372;2022-12-07T12:09:25;94809.25;;;11.23;100.00
8075;BME280;4080;42.676;23.372;2022-12-07T12:12:17;94809.06;;;11.14;100.00
8075;BME280;4080;42.676;23.372;2022-12-07T12:14:54;94804.66;;;11.05;100.00
8075;BME280;4080;42.676;23.372;2022-12-07T12:20:24;94785.50;;;10.84;100.00
8075;BME280;4080;42.676;23.372;2022-12-07T12:22:56;94774.50;;;10.77;100.00
8075;BME280;4080;42.676;23.372;2022-12-07T12:25:27;94790.56;;;10.80;100.00
8075;BME280;4080;42.676;23.372;2022-12-07T12:27:57;94788.22;;;10.74;100.00
8075;BME280;4080;42.676;23.372;2022-12-07T12:30:32;94785.31;;;10.70;100.00
8075;BME280;4080;42.676;23.372;2022-12-07T12:33:13;94789.03;;;10.69;100.00
8075;BME280;4080;42.676;23.372;2022-12-07T12:35:42;94782.16;;;10.68;100.00
8075;BME280;4080;42.676;23.372;2022-12-07T12:38:28;94775.88;;;10.64;100.00
8075;BME280;4080;42.676;23.372;2022-12-07T12:40:56;94778.03;;;10.57;100.00
8075;BME280;4080;42.676;23.372;2022-12-07T12:43:46;94762.78;;;10.49;100.00
8075;BME280;4080;42.676;23.372;2022-12-07T12:46:46;94693.13;;;10.01;100.00
8075;BME280;4080;42.676;23.372;2022-12-07T12:49:35;94758.56;;;10.48;100.00
8075;BME280;4080;42.676;23.372;2022-12-07T12:55:29;94757.63;;;10.68;100.00
8075;BME280;4080;42.676;23.372;2022-12-07T12:58:33;94753.84;;;10.84;100.00
8075;BME280;4080;42.676;23.372;2022-12-07T13:04:27;94726.31;;;10.95;100.00
8075;BME280;4080;42.676;23.372;2022-12-07T13:06:55;94764.31;;;11.28;100.00
8075;BME280;4080;42.676;23.372;2022-12-07T13:09:24;94752.75;;;11.24;100.00
8075;BME280;4080;42.676;23.372;2022-12-07T13:12:00;94763.41;;;11.43;100.00
8075;BME280;4080;42.676;23.372;2022-12-07T13:14:53;94774.66;;;11.54;100.00
8075;BME280;4080;42.676;23.372;2022-12-07T13:17:58;94763.47;;;11.62;100.00
8075;BME280;4080;42.676;23.372;2022-12-07T13:20:46;94765.88;;;11.63;100.00
8075;BME280;4080;42.676;23.372;2022-12-07T13:23:16;94762.16;;;11.64;100.00
8075;BME280;4080;42.676;23.372;2022-12-07T13:25:49;94765.25;;;11.71;100.00
8075;BME280;4080;42.676;23.372;2022-12-07T13:28:21;94765.75;;;11.73;100.00
8075;BME280;4080;42.676;23.372;2022-12-07T13:31:00;94757.94;;;11.63;100.00
8075;BME280;4080;42.676;23.372;2022-12-07T13:33:30;94758.06;;;11.48;100.00
8075;BME280;4080;42.676;23.372;2022-12-07T13:35:57;94765.03;;;11.39;100.00
8075;BME280;4080;42.676;23.372;2022-12-07T13:38:28;94756.38;;;11.33;100.00